Time;durP1;ratioP1;P1;durP2;ratioP2;P2;SDS_P1;SDS_P2;PMS_P1;PMS_P2;Temp;Humidity;BMP_temperature;BMP_pressure;BME280_temperature;BME280_humidity;BME280_pressure;Samples;Min_cycle;Max_cycle;Signal;HPM_P1;HPM_P2
2022/03/14 00:00:45;;;;;;;20.45;13.98;;;10.30;71.30;;;;;;5071244;28;20760;-52
2022/03/14 00:03:12;;;;;;;22.85;14.20;;;10.30;71.20;;;;;;5067466;28;20067;-57
2022/03/14 00:05:38;;;;;;;16.55;12.27;;;10.30;71.30;;;;;;5075686;28;20543;-54
2022/03/14 00:08:05;;;;;;;20.80;14.35;;;10.30;71.40;;;;;;5075773;28;20399;-52
2022/03/14 00:10:32;;;;;;;18.65;12.30;;;10.30;71.40;;;;;;5074451;28;20043;-56
2022/03/14 00:12:58;;;;;;;17.15;13.50;;;10.30;71.50;;;;;;5077138;28;20055;-54
2022/03/14 00:15:30;;;;;;;17.90;13.60;;;10.20;71.70;;;;;;5079203;28;20055;-56
2022/03/14 00:17:57;;;;;;;22.10;15.38;;;10.20;72.00;;;;;;5071721;28;20184;-53
2022/03/14 00:20:23;;;;;;;17.65;13.68;;;10.20;72.30;;;;;;5081003;28;20055;-55
2022/03/14 00:22:48;;;;;;;20.30;14.02;;;10.10;72.50;;;;;;5068835;28;20029;-55
2022/03/14 00:25:14;;;;;;;19.05;13.45;;;10.10;72.80;;;;;;5084125;28;20554;-56
2022/03/14 00:27:41;;;;;;;19.38;14.50;;;10.00;73.00;;;;;;5074718;28;20041;-55
2022/03/14 00:30:13;;;;;;;19.42;13.63;;;10.00;73.50;;;;;;5062314;28;20276;-52
2022/03/14 00:32:40;;;;;;;22.42;13.55;;;10.00;74.40;;;;;;5069716;28;20036;-56
2022/03/14 00:35:07;;;;;;;19.80;14.30;;;10.00;74.70;;;;;;5077708;28;20090;-53
2022/03/14 00:37:33;;;;;;;20.88;14.27;;;10.00;75.30;;;;;;5072672;28;20040;-53
2022/03/14 00:39:59;;;;;;;19.52;14.52;;;9.90;75.80;;;;;;5078360;28;20123;-53
2022/03/14 00:42:25;;;;;;;18.67;14.77;;;9.90;76.30;;;;;;5077826;28;20383;-53
2022/03/14 00:44:52;;;;;;;19.45;14.95;;;9.90;76.80;;;;;;5072565;28;20213;-52
2022/03/14 00:47:18;;;;;;;18.17;14.80;;;9.90;77.10;;;;;;5069427;28;20119;-51
2022/03/14 00:49:46;;;;;;;20.40;14.73;;;9.80;77.40;;;;;;5068839;28;20063;-54
2022/03/14 00:52:12;;;;;;;18.98;13.75;;;9.80;77.90;;;;;;5075930;28;20045;-52
2022/03/14 00:54:38;;;;;;;21.20;15.27;;;9.80;78.50;;;;;;5078168;28;20036;-52
2022/03/14 00:57:04;;;;;;;20.13;14.90;;;9.80;78.70;;;;;;5073660;28;20047;-56
2022/03/14 00:59:30;;;;;;;18.02;12.80;;;9.80;79.50;;;;;;5075982;28;20040;-52
2022/03/14 01:01:56;;;;;;;17.00;12.65;;;9.70;79.20;;;;;;5067510;28;20044;-52
2022/03/14 01:04:22;;;;;;;19.52;14.00;;;9.80;79.50;;;;;;5062815;28;20048;-54
2022/03/14 01:06:48;;;;;;;17.40;13.07;;;9.80;79.80;;;;;;5062026;28;20036;-54
2022/03/14 01:09:14;;;;;;;16.42;11.45;;;9.80;79.90;;;;;;5073026;28;20048;-55
2022/03/14 01:11:44;;;;;;;18.95;14.23;;;9.80;80.10;;;;;;5082520;28;20035;-55
2022/03/14 01:14:10;;;;;;;18.42;13.73;;;9.80;80.40;;;;;;5079634;28;20179;-55
2022/03/14 01:16:37;;;;;;;18.50;13.35;;;9.80;80.80;;;;;;5071265;28;20060;-55
2022/03/14 01:19:03;;;;;;;20.17;13.88;;;9.70;81.00;;;;;;5076410;28;20299;-52
2022/03/14 01:21:30;;;;;;;16.23;12.93;;;9.70;81.30;;;;;;5071289;28;20075;-55
2022/03/14 01:23:56;;;;;;;18.33;14.05;;;9.70;81.60;;;;;;5076320;28;20044;-52
2022/03/14 01:26:22;;;;;;;17.50;13.75;;;9.60;81.90;;;;;;5076627;28;20567;-54
2022/03/14 01:28:48;;;;;;;17.25;13.38;;;9.60;82.10;;;;;;5077856;28;20040;-56
2022/03/14 01:31:14;;;;;;;18.38;14.18;;;9.60;82.40;;;;;;5076972;28;20071;-54
2022/03/14 01:33:40;;;;;;;20.15;14.30;;;9.60;82.50;;;;;;5077049;28;20036;-55
2022/03/14 01:36:06;;;;;;;17.33;13.23;;;9.60;82.60;;;;;;5074648;28;20052;-57
2022/03/14 01:38:32;;;;;;;20.33;14.88;;;9.60;82.70;;;;;;5058938;28;20550;-55
2022/03/14 01:40:59;;;;;;;22.13;14.43;;;9.60;83.00;;;;;;5074204;28;20127;-58
2022/03/14 01:43:26;;;;;;;19.02;14.38;;;9.60;83.40;;;;;;5073580;28;20133;-52
2022/03/14 01:46:00;;;;;;;20.98;15.00;;;9.60;83.70;;;;;;5066412;28;20048;-56
2022/03/14 01:48:26;;;;;;;19.27;15.15;;;9.60;83.90;;;;;;5076959;28;20923;-52
2022/03/14 01:50:52;;;;;;;20.55;15.18;;;9.60;84.10;;;;;;5079969;28;20048;-56
2022/03/14 01:53:19;;;;;;;20.75;14.98;;;9.60;84.00;;;;;;5077354;28;20506;-54
2022/03/14 01:55:50;;;;;;;22.63;15.18;;;9.60;84.20;;;;;;5064069;28;20190;-55
2022/03/14 01:58:16;;;;;;;21.95;15.98;;;9.60;84.40;;;;;;5076850;28;20222;-53
2022/03/14 02:00:43;;;;;;;19.65;14.88;;;9.50;84.60;;;;;;5065474;28;20040;-53
2022/03/14 02:03:09;;;;;;;17.08;13.10;;;9.50;84.80;;;;;;5074770;28;20115;-54
2022/03/14 02:05:37;;;;;;;19.80;14.82;;;9.50;84.80;;;;;;5090125;22;20079;-53
2022/03/14 02:08:04;;;;;;;19.70;15.00;;;9.50;84.90;;;;;;5062570;28;20251;-54
2022/03/14 02:10:30;;;;;;;22.42;15.43;;;9.50;85.00;;;;;;5070547;28;20038;-53
2022/03/14 02:12:56;;;;;;;22.65;15.20;;;9.50;85.00;;;;;;5061545;28;20414;-55
2022/03/14 02:15:22;;;;;;;21.50;16.80;;;9.50;85.10;;;;;;5052489;28;20041;-53
2022/03/14 02:17:48;;;;;;;20.52;15.50;;;9.50;85.20;;;;;;5059749;28;20494;-53
2022/03/14 02:20:13;;;;;;;17.67;13.70;;;9.40;85.30;;;;;;5060005;28;20407;-57
2022/03/14 02:22:39;;;;;;;18.60;14.57;;;9.50;85.50;;;;;;5058528;28;20063;-54
2022/03/14 02:25:09;;;;;;;18.60;14.55;;;9.50;85.70;;;;;;5056592;28;20431;-54
2022/03/14 02:27:37;;;;;;;21.58;15.82;;;9.50;85.60;;;;;;5058746;28;20048;-53
2022/03/14 02:30:03;;;;;;;18.95;14.27;;;9.50;85.70;;;;;;5058381;28;20048;-55
2022/03/14 02:32:29;;;;;;;19.65;13.68;;;9.50;85.80;;;;;;5053062;28;20076;-56
2022/03/14 02:34:55;;;;;;;23.20;15.35;;;9.50;85.90;;;;;;5060200;28;20500;-57
2022/03/14 02:37:21;;;;;;;23.17;14.70;;;9.60;86.20;;;;;;5056523;28;20124;-55
2022/03/14 02:39:48;;;;;;;19.52;14.82;;;9.60;86.30;;;;;;5058749;28;20049;-53
2022/03/14 02:42:14;;;;;;;18.70;14.02;;;9.60;86.20;;;;;;5060955;28;20041;-55
2022/03/14 02:44:42;;;;;;;20.10;14.77;;;9.60;86.40;;;;;;5063672;28;20562;-55
2022/03/14 02:47:08;;;;;;;17.23;12.65;;;9.60;86.60;;;;;;5061232;28;20052;-53
2022/03/14 02:49:34;;;;;;;20.45;14.32;;;9.60;86.80;;;;;;5055424;28;20039;-57
2022/03/14 02:52:00;;;;;;;20.30;13.75;;;9.60;87.00;;;;;;5063273;28;20029;-56
2022/03/14 02:54:26;;;;;;;17.73;13.40;;;9.60;87.20;;;;;;5043314;28;20055;-55
2022/03/14 02:56:52;;;;;;;17.75;13.20;;;9.60;87.30;;;;;;5061527;28;20411;-56
2022/03/14 02:59:20;;;;;;;15.85;11.85;;;9.60;87.70;;;;;;5061778;28;20127;-56
2022/03/14 03:01:46;;;;;;;14.98;11.25;;;9.60;87.70;;;;;;5052873;28;20048;-54
2022/03/14 03:04:11;;;;;;;15.63;12.13;;;9.60;87.80;;;;;;5059482;28;20196;-54
2022/03/14 03:06:37;;;;;;;15.63;12.13;;;9.60;88.10;;;;;;5062141;28;20151;-53
2022/03/14 03:09:03;;;;;;;12.65;9.32;;;9.70;88.30;;;;;;5060678;28;20057;-57
2022/03/14 03:11:31;;;;;;;15.10;11.02;;;9.60;88.90;;;;;;5054482;28;20123;-54
2022/03/14 03:13:56;;;;;;;14.93;11.70;;;9.70;89.30;;;;;;5059946;28;20076;-56
2022/03/14 03:16:23;;;;;;;13.95;10.45;;;9.70;89.40;;;;;;5060777;28;20072;-56
2022/03/14 03:18:48;;;;;;;15.48;9.98;;;9.70;89.70;;;;;;5060951;28;20045;-55
2022/03/14 03:21:16;;;;;;;12.05;9.10;;;9.70;90.00;;;;;;5054206;28;21015;-56
2022/03/14 03:23:42;;;;;;;13.73;9.23;;;9.50;90.10;;;;;;5057012;28;20072;-57
2022/03/14 03:26:08;;;;;;;12.13;9.43;;;9.70;90.20;;;;;;5058571;28;20353;-56
2022/03/14 03:28:37;;;;;;;14.48;10.02;;;9.70;90.30;;;;;;5059937;28;20064;-57
2022/03/14 03:31:09;;;;;;;13.70;9.95;;;9.70;90.50;;;;;;5041394;28;20055;-56
2022/03/14 03:33:35;;;;;;;11.82;8.65;;;9.70;90.70;;;;;;5057030;28;20113;-56
2022/03/14 03:36:01;;;;;;;12.57;10.10;;;9.70;90.90;;;;;;5074687;28;20037;-58
2022/03/14 03:38:27;;;;;;;11.95;9.90;;;9.70;90.90;;;;;;5041649;28;20063;-55
2022/03/14 03:40:53;;;;;;;12.40;8.93;;;9.70;91.00;;;;;;5045925;28;20104;-57
2022/03/14 03:43:20;;;;;;;10.18;8.18;;;9.70;91.20;;;;;;5075228;28;20044;-54
2022/03/14 03:45:45;;;;;;;11.13;8.50;;;9.70;91.30;;;;;;5058025;28;20040;-54
2022/03/14 03:48:11;;;;;;;11.63;8.23;;;9.60;91.30;;;;;;5044080;28;20044;-54
2022/03/14 03:50:37;;;;;;;12.73;8.45;;;9.60;91.40;;;;;;5046477;28;20360;-58
2022/03/14 03:53:03;;;;;;;11.27;7.80;;;9.70;91.60;;;;;;5040074;28;20080;-56
2022/03/14 03:55:28;;;;;;;10.00;7.70;;;9.70;91.70;;;;;;5061597;28;20052;-55
2022/03/14 03:57:54;;;;;;;9.38;7.10;;;9.70;91.90;;;;;;5064003;28;20037;-55
2022/03/14 04:00:20;;;;;;;8.93;6.90;;;9.70;92.10;;;;;;5059033;28;20091;-56
2022/03/14 04:02:46;;;;;;;8.20;6.10;;;9.70;92.20;;;;;;5055645;28;20036;-56
2022/03/14 04:05:16;;;;;;;13.32;7.32;;;9.70;92.40;;;;;;5057163;28;20063;-56
2022/03/14 04:07:43;;;;;;;8.18;5.57;;;9.80;92.60;;;;;;5044774;28;20387;-55
2022/03/14 04:10:14;;;;;;;7.60;6.05;;;9.80;92.80;;;;;;5062384;28;20049;-53
2022/03/14 04:12:40;;;;;;;8.13;5.25;;;9.80;92.90;;;;;;5064301;28;20044;-55
2022/03/14 04:15:09;;;;;;;7.85;5.70;;;9.90;93.20;;;;;;5038418;28;20337;-53
2022/03/14 04:17:36;;;;;;;8.13;5.25;;;9.80;93.20;;;;;;5060630;28;20041;-56
2022/03/14 04:20:04;;;;;;;7.40;5.70;;;9.90;93.30;;;;;;5047954;28;20054;-53
2022/03/14 04:22:30;;;;;;;8.02;5.97;;;9.80;93.40;;;;;;5066781;28;20032;-53
2022/03/14 04:24:56;;;;;;;7.72;5.20;;;9.90;93.50;;;;;;5067269;28;20115;-54
2022/03/14 04:27:23;;;;;;;6.45;4.75;;;9.90;93.70;;;;;;5063539;28;20579;-54
2022/03/14 04:29:49;;;;;;;8.13;5.15;;;9.90;93.80;;;;;;5033726;28;20316;-54
2022/03/14 04:32:15;;;;;;;6.57;4.97;;;9.90;94.00;;;;;;5063626;28;20056;-52
2022/03/14 04:34:40;;;;;;;5.15;4.13;;;9.90;94.10;;;;;;5061856;28;20036;-53
2022/03/14 04:37:06;;;;;;;7.20;5.70;;;9.90;94.20;;;;;;5067725;28;20314;-54
2022/03/14 04:39:32;;;;;;;6.90;4.72;;;9.90;94.30;;;;;;5064300;28;20032;-56
2022/03/14 04:41:59;;;;;;;6.88;5.28;;;9.90;94.40;;;;;;5061929;28;20045;-56
2022/03/14 04:44:24;;;;;;;6.75;5.32;;;9.90;94.60;;;;;;5057210;28;20048;-54
2022/03/14 04:46:51;;;;;;;8.40;5.32;;;9.90;94.70;;;;;;5058421;28;20048;-56
2022/03/14 04:49:16;;;;;;;7.03;4.57;;;9.90;95.10;;;;;;5056063;28;20053;-57
2022/03/14 04:51:43;;;;;;;5.95;4.47;;;9.90;95.00;;;;;;5062364;28;20110;-56
2022/03/14 04:54:09;;;;;;;5.22;3.80;;;9.90;95.20;;;;;;5057645;28;20080;-56
2022/03/14 04:56:35;;;;;;;5.78;3.90;;;9.90;95.40;;;;;;5064321;28;20460;-56
2022/03/14 04:59:01;;;;;;;4.97;3.65;;;9.90;95.60;;;;;;5048397;28;20040;-57
2022/03/14 05:01:27;;;;;;;5.78;3.67;;;10.00;96.00;;;;;;5063097;28;20487;-56
2022/03/14 05:03:52;;;;;;;4.65;3.42;;;10.00;96.00;;;;;;5063321;28;20048;-56
2022/03/14 05:06:21;;;;;;;4.40;3.20;;;10.00;96.20;;;;;;5060229;28;20037;-56
2022/03/14 05:08:48;;;;;;;4.65;3.42;;;10.00;96.40;;;;;;5048936;28;20044;-56
2022/03/14 05:11:14;;;;;;;4.80;2.90;;;10.00;96.50;;;;;;5056688;28;20059;-56
2022/03/14 05:13:43;;;;;;;5.95;3.47;;;10.00;96.50;;;;;;5053193;28;20221;-57
2022/03/14 05:16:09;;;;;;;5.72;3.72;;;10.00;96.70;;;;;;5063341;28;20131;-55
2022/03/14 05:18:35;;;;;;;5.40;3.33;;;10.10;96.70;;;;;;5056837;28;20123;-55
2022/03/14 05:21:01;;;;;;;4.68;2.97;;;10.10;96.80;;;;;;5024956;28;20109;-55
2022/03/14 05:23:28;;;;;;;5.07;3.20;;;10.00;96.80;;;;;;5040623;28;20124;-56
2022/03/14 05:25:54;;;;;;;4.03;3.00;;;10.00;97.00;;;;;;5046275;28;20392;-57
2022/03/14 05:28:20;;;;;;;4.10;3.22;;;10.00;97.10;;;;;;5061446;28;20044;-56
2022/03/14 05:30:46;;;;;;;3.70;2.85;;;10.00;97.30;;;;;;5055550;28;20044;-57
2022/03/14 05:33:12;;;;;;;5.60;3.40;;;10.00;97.40;;;;;;5048645;28;20132;-56
2022/03/14 05:35:37;;;;;;;4.15;3.20;;;10.00;97.50;;;;;;5064469;28;20048;-56
2022/03/14 05:38:03;;;;;;;4.18;2.85;;;10.00;97.40;;;;;;5058326;28;20227;-57
2022/03/14 05:40:29;;;;;;;3.67;2.92;;;10.00;97.40;;;;;;5065271;28;20159;-56
2022/03/14 05:42:55;;;;;;;4.20;2.75;;;9.90;97.50;;;;;;5046404;28;20074;-57
2022/03/14 05:45:21;;;;;;;5.03;3.30;;;10.00;97.60;;;;;;5042026;28;20102;-55
2022/03/14 05:47:48;;;;;;;4.00;2.97;;;9.90;97.70;;;;;;5049561;28;20044;-55
2022/03/14 05:50:14;;;;;;;4.82;3.20;;;9.90;97.70;;;;;;5061670;28;20083;-57
2022/03/14 05:52:40;;;;;;;4.13;3.15;;;9.90;97.80;;;;;;5059656;28;20072;-56
2022/03/14 05:55:07;;;;;;;3.85;2.92;;;9.90;97.90;;;;;;5057466;28;20403;-56
2022/03/14 05:57:33;;;;;;;4.55;3.03;;;9.90;98.00;;;;;;5058384;28;20037;-58
2022/03/14 05:59:59;;;;;;;4.32;3.20;;;9.90;98.00;;;;;;5044533;28;20521;-55
2022/03/14 06:02:25;;;;;;;4.63;3.30;;;9.90;98.10;;;;;;5061379;28;20119;-57
2022/03/14 06:04:52;;;;;;;4.57;3.13;;;9.90;98.20;;;;;;5062940;28;20446;-56
2022/03/14 06:07:21;;;;;;;5.10;3.45;;;9.80;98.30;;;;;;5061691;28;20036;-52
2022/03/14 06:09:50;;;;;;;4.50;3.40;;;9.80;98.50;;;;;;5052407;28;20312;-52
2022/03/14 06:12:29;;;;;;;4.88;3.22;;;9.80;98.50;;;;;;5059789;28;20041;-57
2022/03/14 06:15:00;;;;;;;5.10;3.42;;;9.80;98.60;;;;;;5042661;28;20037;-55
2022/03/14 06:17:27;;;;;;;5.88;3.53;;;9.80;98.70;;;;;;5055105;28;20053;-55
2022/03/14 06:19:52;;;;;;;4.45;3.20;;;9.80;98.80;;;;;;5054226;28;20044;-53
2022/03/14 06:22:20;;;;;;;4.78;3.38;;;9.80;98.90;;;;;;5042814;28;20049;-55
2022/03/14 06:24:47;;;;;;;4.45;3.33;;;9.80;98.90;;;;;;5064804;28;20037;-55
2022/03/14 06:27:18;;;;;;;4.60;3.40;;;9.90;99.10;;;;;;5063482;28;20417;-54
2022/03/14 06:29:44;;;;;;;5.50;3.30;;;9.90;99.30;;;;;;5061838;28;20037;-55
2022/03/14 06:32:11;;;;;;;4.07;2.97;;;9.90;99.30;;;;;;5054209;28;20085;-53
2022/03/14 06:34:40;;;;;;;4.75;3.05;;;9.90;99.70;;;;;;5058066;28;20410;-56
2022/03/14 06:37:07;;;;;;;4.90;3.58;;;9.90;99.70;;;;;;5055234;28;20053;-53
2022/03/14 06:39:37;;;;;;;5.78;3.55;;;9.90;99.90;;;;;;5065713;28;20040;-55
2022/03/14 06:42:09;;;;;;;4.13;3.30;;;9.90;99.90;;;;;;5059714;28;20090;-53
2022/03/14 06:44:40;;;;;;;4.53;3.17;;;9.90;99.90;;;;;;5062754;28;20045;-53
2022/03/14 06:47:10;;;;;;;5.80;3.50;;;10.00;99.90;;;;;;5059146;28;20055;-55
2022/03/14 06:49:42;;;;;;;5.15;3.22;;;9.90;99.90;;;;;;5065050;28;20052;-56
2022/03/14 06:52:08;;;;;;;5.15;3.50;;;10.00;99.90;;;;;;5056085;28;20151;-56
2022/03/14 06:54:34;;;;;;;4.30;3.10;;;9.90;99.90;;;;;;5050537;28;20044;-57
2022/03/14 06:56:59;;;;;;;4.40;3.20;;;9.90;99.90;;;;;;5058464;28;20025;-57
2022/03/14 06:59:25;;;;;;;4.28;3.28;;;10.00;99.90;;;;;;5043876;28;20041;-56
2022/03/14 07:01:51;;;;;;;4.68;3.67;;;10.00;99.90;;;;;;5062279;28;20053;-54
2022/03/14 07:04:17;;;;;;;4.88;3.45;;;10.00;99.90;;;;;;5061711;28;20044;-55
2022/03/14 07:06:42;;;;;;;4.30;3.28;;;9.90;99.90;;;;;;5058160;28;20615;-56
2022/03/14 07:09:09;;;;;;;3.90;2.90;;;10.00;99.90;;;;;;5060744;28;20123;-55
2022/03/14 07:11:35;;;;;;;4.93;3.40;;;10.00;99.90;;;;;;5046538;28;20099;-56
2022/03/14 07:14:01;;;;;;;4.75;3.22;;;10.00;99.90;;;;;;5056280;28;20494;-57
2022/03/14 07:16:26;;;;;;;4.80;3.88;;;10.00;99.90;;;;;;5045397;28;20044;-54
2022/03/14 07:18:52;;;;;;;5.82;3.38;;;10.00;99.90;;;;;;5059789;28;20033;-56
2022/03/14 07:21:18;;;;;;;6.05;3.95;;;10.00;99.90;;;;;;5053888;28;20044;-55
2022/03/14 07:23:44;;;;;;;5.57;4.00;;;10.00;99.90;;;;;;5060809;28;20044;-56
2022/03/14 07:26:11;;;;;;;6.95;4.05;;;10.00;99.90;;;;;;5053555;28;20422;-57
2022/03/14 07:28:36;;;;;;;7.65;4.45;;;10.00;99.90;;;;;;5068607;28;20063;-57
2022/03/14 07:31:02;;;;;;;6.88;4.70;;;10.00;99.90;;;;;;5050535;28;20048;-57
2022/03/14 07:33:28;;;;;;;5.13;3.92;;;10.00;99.90;;;;;;5056773;28;20954;-56
2022/03/14 07:35:55;;;;;;;6.50;4.72;;;10.00;99.90;;;;;;5064738;28;20502;-58
2022/03/14 07:38:21;;;;;;;7.50;5.38;;;10.00;99.90;;;;;;5060883;28;20041;-61
2022/03/14 07:40:46;;;;;;;7.43;5.38;;;10.10;99.90;;;;;;5067513;28;20429;-58
2022/03/14 07:43:12;;;;;;;8.30;5.95;;;10.10;99.90;;;;;;5064037;28;20041;-58
2022/03/14 07:45:38;;;;;;;8.25;6.68;;;10.10;99.90;;;;;;5047800;28;20445;-57
2022/03/14 07:48:05;;;;;;;9.13;6.68;;;10.00;99.90;;;;;;5061403;28;20041;-58
2022/03/14 07:50:31;;;;;;;8.68;6.43;;;10.10;99.90;;;;;;5063752;28;20081;-58
2022/03/14 07:53:00;;;;;;;7.75;6.35;;;10.10;99.90;;;;;;5064862;28;20075;-58
2022/03/14 07:55:26;;;;;;;8.63;6.20;;;10.00;99.90;;;;;;5027805;28;20298;-56
2022/03/14 07:57:52;;;;;;;10.20;7.25;;;10.10;99.90;;;;;;5058716;28;20025;-58
2022/03/14 08:00:19;;;;;;;9.10;7.82;;;10.10;99.90;;;;;;5065644;28;20129;-58
2022/03/14 08:02:46;;;;;;;9.10;7.85;;;10.10;99.90;;;;;;5057769;28;20045;-57
2022/03/14 08:05:14;;;;;;;10.10;8.55;;;10.10;99.90;;;;;;5059861;28;20036;-57
2022/03/14 08:07:45;;;;;;;11.52;9.82;;;10.10;99.90;;;;;;5045536;28;20048;-59
2022/03/14 08:10:11;;;;;;;11.77;9.90;;;10.10;99.90;;;;;;5062148;28;20162;-56
2022/03/14 08:12:46;;;;;;;11.15;8.93;;;10.10;99.90;;;;;;5057237;28;20521;-56
2022/03/14 08:15:21;;;;;;;11.18;9.60;;;10.10;99.90;;;;;;5066740;28;20138;-58
2022/03/14 08:17:47;;;;;;;13.73;10.77;;;10.20;99.90;;;;;;5065295;28;20071;-59
2022/03/14 08:20:13;;;;;;;14.15;10.18;;;10.20;99.90;;;;;;5043077;28;20040;-53
2022/03/14 08:22:42;;;;;;;12.25;9.98;;;10.20;99.90;;;;;;5067314;28;20099;-56
2022/03/14 08:25:08;;;;;;;13.95;11.88;;;10.20;99.90;;;;;;5065890;28;20057;-54
2022/03/14 08:27:34;;;;;;;13.40;10.93;;;10.20;99.90;;;;;;5058778;28;20068;-57
2022/03/14 08:30:00;;;;;;;13.20;10.80;;;10.20;99.90;;;;;;5059552;28;20079;-56
2022/03/14 08:32:28;;;;;;;14.50;11.77;;;10.20;99.90;;;;;;5034004;28;20047;-59
2022/03/14 08:34:56;;;;;;;14.50;11.82;;;10.20;99.90;;;;;;5044051;28;20045;-54
2022/03/14 08:37:22;;;;;;;14.90;11.77;;;10.20;99.90;;;;;;5060321;28;20167;-53
2022/03/14 08:39:48;;;;;;;15.90;13.10;;;10.20;99.90;;;;;;5063762;28;20040;-57
2022/03/14 08:42:14;;;;;;;16.45;13.57;;;10.20;99.90;;;;;;5066872;28;20036;-53
2022/03/14 08:44:41;;;;;;;16.77;13.25;;;10.10;99.90;;;;;;5067320;28;20123;-59
2022/03/14 08:47:08;;;;;;;18.60;15.60;;;10.20;99.90;;;;;;5059353;28;20036;-57
2022/03/14 08:49:34;;;;;;;18.65;15.23;;;10.20;99.90;;;;;;5051116;28;20044;-58
2022/03/14 08:52:00;;;;;;;20.73;16.20;;;10.10;99.90;;;;;;5061380;28;20071;-58
2022/03/14 08:54:26;;;;;;;23.75;18.55;;;10.20;99.90;;;;;;5056587;28;20122;-55
2022/03/14 08:56:52;;;;;;;21.60;17.48;;;10.20;99.90;;;;;;5066325;28;20473;-58
2022/03/14 08:59:20;;;;;;;22.80;17.95;;;10.20;99.90;;;;;;5056653;28;20083;-57
2022/03/14 09:01:47;;;;;;;24.40;18.58;;;10.20;99.90;;;;;;5047696;28;20050;-58
2022/03/14 09:04:12;;;;;;;28.48;20.73;;;10.20;99.90;;;;;;5064346;28;20491;-57
2022/03/14 09:06:38;;;;;;;30.42;21.27;;;10.10;99.90;;;;;;5058522;28;20040;-54
2022/03/14 09:09:04;;;;;;;31.65;20.77;;;10.10;99.90;;;;;;5063713;28;20067;-58
2022/03/14 09:11:29;;;;;;;27.20;19.05;;;10.00;99.90;;;;;;5033363;28;20040;-53
2022/03/14 09:13:55;;;;;;;31.17;19.10;;;10.00;99.90;;;;;;5048108;28;20407;-54
2022/03/14 09:16:21;;;;;;;27.90;18.45;;;10.00;99.90;;;;;;5062844;28;20041;-59
2022/03/14 09:18:47;;;;;;;29.40;18.75;;;9.90;99.90;;;;;;5050689;28;20072;-56
2022/03/14 09:21:14;;;;;;;31.80;18.48;;;10.00;99.90;;;;;;5063091;28;20044;-57
2022/03/14 09:23:43;;;;;;;30.70;18.20;;;9.90;99.90;;;;;;5066842;28;20419;-57
2022/03/14 09:26:09;;;;;;;24.48;16.05;;;9.90;99.90;;;;;;5046562;28;20043;-57
2022/03/14 09:28:44;;;;;;;25.25;15.90;;;9.90;99.90;;;;;;5063020;28;20487;-57
2022/03/14 09:31:12;;;;;;;23.88;14.95;;;9.90;99.90;;;;;;5063468;28;20108;-55
2022/03/14 09:33:39;;;;;;;26.13;16.13;;;9.90;99.90;;;;;;5061787;28;20579;-57
2022/03/14 09:36:05;;;;;;;23.13;14.38;;;9.90;99.90;;;;;;5053684;28;20362;-58
2022/03/14 09:38:31;;;;;;;25.52;13.85;;;9.80;99.90;;;;;;5066029;28;20075;-58
2022/03/14 09:41:01;;;;;;;21.40;13.18;;;9.90;99.90;;;;;;5054293;28;20446;-57
2022/03/14 09:43:30;;;;;;;26.13;12.88;;;9.90;99.90;;;;;;5045398;28;20091;-58
2022/03/14 09:45:56;;;;;;;29.58;14.30;;;9.80;99.90;;;;;;5050629;28;20064;-57
2022/03/14 09:48:23;;;;;;;27.13;13.05;;;9.80;99.90;;;;;;5052867;28;20045;-57
2022/03/14 09:50:49;;;;;;;26.80;13.00;;;9.80;99.90;;;;;;5046972;28;20047;-57
2022/03/14 09:53:17;;;;;;;23.23;11.60;;;9.90;99.90;;;;;;5018565;28;20346;-56
2022/03/14 09:55:46;;;;;;;28.33;11.80;;;9.90;99.90;;;;;;5067461;28;20037;-62
2022/03/14 09:58:13;;;;;;;24.98;10.63;;;9.90;99.90;;;;;;5060388;28;20124;-58
2022/03/14 10:00:39;;;;;;;20.52;10.98;;;9.90;99.90;;;;;;5061163;28;20047;-56
2022/03/14 10:03:05;;;;;;;21.67;11.35;;;9.90;99.90;;;;;;5059253;28;20186;-57
2022/03/14 10:05:31;;;;;;;21.02;10.85;;;9.90;99.90;;;;;;5061662;28;20127;-55
2022/03/14 10:07:57;;;;;;;23.83;10.30;;;10.00;99.90;;;;;;5057932;28;20122;-56
2022/03/14 10:10:23;;;;;;;24.13;10.73;;;10.00;99.90;;;;;;5063968;28;20479;-61
2022/03/14 10:12:53;;;;;;;15.02;8.35;;;10.00;99.90;;;;;;5063105;28;20032;-57
2022/03/14 10:15:21;;;;;;;13.68;6.43;;;10.10;99.90;;;;;;5046847;28;20401;-57
2022/03/14 10:17:47;;;;;;;13.23;6.63;;;10.10;99.90;;;;;;5056981;28;20047;-58
2022/03/14 10:20:15;;;;;;;14.13;5.80;;;10.00;99.90;;;;;;5061259;28;20048;-57
2022/03/14 10:22:44;;;;;;;13.80;5.57;;;10.00;99.90;;;;;;5061072;28;20041;-61
2022/03/14 10:25:20;;;;;;;19.27;6.43;;;10.00;99.90;;;;;;5066590;28;20538;-57
2022/03/14 10:27:49;;;;;;;12.25;5.57;;;10.00;99.90;;;;;;5061266;28;20033;-58
2022/03/14 10:30:29;;;;;;;12.63;6.15;;;10.00;99.90;;;;;;5049316;28;20071;-57
2022/03/14 10:33:08;;;;;;;15.50;6.85;;;10.00;99.90;;;;;;5059231;28;20041;-61
2022/03/14 10:35:35;;;;;;;13.18;6.60;;;10.10;99.90;;;;;;5040952;28;20052;-55
2022/03/14 10:38:04;;;;;;;13.30;6.18;;;10.20;99.90;;;;;;5058438;28;20051;-55
2022/03/14 10:40:32;;;;;;;16.77;7.07;;;10.20;99.90;;;;;;5058358;28;20098;-55
2022/03/14 10:42:59;;;;;;;15.38;6.88;;;10.20;99.90;;;;;;5064960;28;20621;-62
2022/03/14 10:45:25;;;;;;;12.98;6.70;;;10.20;99.90;;;;;;5045610;28;20097;-54
2022/03/14 10:47:57;;;;;;;17.13;7.53;;;10.20;99.90;;;;;;5037362;28;20438;-57
2022/03/14 10:50:40;;;;;;;16.38;7.70;;;10.20;99.90;;;;;;5064513;28;20113;-55
2022/03/14 10:53:16;;;;;;;17.83;7.40;;;10.30;99.90;;;;;;5061126;28;20041;-64
2022/03/14 10:55:47;;;;;;;14.65;7.13;;;10.30;99.90;;;;;;5057589;28;20077;-55
2022/03/14 10:58:19;;;;;;;18.42;8.15;;;10.40;99.90;;;;;;5058221;28;20363;-53
2022/03/14 11:00:52;;;;;;;16.35;6.88;;;10.40;99.90;;;;;;5047513;28;20040;-54
2022/03/14 11:03:25;;;;;;;17.42;7.80;;;10.40;99.90;;;;;;5060011;28;20051;-61
2022/03/14 11:05:52;;;;;;;12.60;6.80;;;10.40;99.90;;;;;;5058061;28;20221;-56
2022/03/14 11:08:31;;;;;;;12.82;7.38;;;10.40;99.90;;;;;;5062582;28;20073;-56
2022/03/14 11:10:59;;;;;;;16.13;8.77;;;10.50;99.90;;;;;;5062512;28;22140;-55
2022/03/14 11:13:26;;;;;;;18.08;8.25;;;10.50;99.90;;;;;;5069924;28;20040;-61
2022/03/14 11:15:53;;;;;;;18.88;9.02;;;10.50;99.90;;;;;;5047645;28;20576;-56
2022/03/14 11:18:21;;;;;;;15.52;8.38;;;10.50;99.90;;;;;;5044401;28;20029;-56
2022/03/14 11:20:46;;;;;;;15.63;9.25;;;10.60;99.90;;;;;;5058715;28;20040;-57
2022/03/14 11:23:16;;;;;;;23.42;9.80;;;10.60;99.90;;;;;;5048467;28;20100;-58
2022/03/14 11:25:46;;;;;;;19.55;9.80;;;10.60;99.90;;;;;;5063820;28;20052;-56
2022/03/14 11:28:19;;;;;;;21.27;9.98;;;10.70;99.90;;;;;;5042972;28;20633;-58
2022/03/14 11:31:03;;;;;;;23.85;11.73;;;10.70;99.90;;;;;;5055942;28;20037;-57
2022/03/14 11:33:31;;;;;;;19.35;9.82;;;10.70;99.90;;;;;;5051316;28;20106;-57
2022/03/14 11:36:00;;;;;;;26.75;11.00;;;10.70;99.90;;;;;;5066905;28;20040;-62
2022/03/14 11:38:28;;;;;;;23.67;11.30;;;10.60;99.90;;;;;;5048760;28;20037;-57
2022/03/14 11:40:54;;;;;;;25.17;12.63;;;10.70;99.90;;;;;;5057629;28;20344;-57
2022/03/14 11:43:20;;;;;;;20.27;11.43;;;10.70;99.90;;;;;;5059793;28;20098;-57
2022/03/14 11:45:47;;;;;;;24.98;12.50;;;10.80;99.90;;;;;;5064877;28;20287;-57
2022/03/14 11:48:14;;;;;;;28.15;13.10;;;10.70;99.90;;;;;;5057470;28;20049;-58
2022/03/14 11:50:48;;;;;;;22.73;11.10;;;10.70;99.90;;;;;;5063528;28;20044;-60
2022/03/14 11:53:26;;;;;;;27.23;12.18;;;10.70;99.90;;;;;;5064768;28;20051;-55
2022/03/14 11:55:54;;;;;;;23.33;12.43;;;10.80;99.90;;;;;;5060598;28;20036;-57
2022/03/14 11:58:40;;;;;;;25.23;11.65;;;10.80;99.90;;;;;;5063063;28;20461;-56
2022/03/14 12:01:23;;;;;;;25.38;11.35;;;10.90;99.90;;;;;;5056014;28;20087;-53
2022/03/14 12:03:54;;;;;;;24.90;11.20;;;10.90;99.90;;;;;;5037688;28;20117;-55
2022/03/14 12:06:46;;;;;;;25.55;12.90;;;10.90;99.90;;;;;;5044738;28;20032;-61
2022/03/14 12:09:24;;;;;;;30.08;11.95;;;10.90;99.90;;;;;;5047244;28;20087;-57
2022/03/14 12:11:55;;;;;;;26.55;11.35;;;11.00;99.90;;;;;;5040482;28;20045;-55
2022/03/14 12:14:44;;;;;;;28.20;12.25;;;11.10;99.90;;;;;;5032948;28;20040;-59
2022/03/14 12:17:13;;;;;;;19.58;10.10;;;11.10;99.90;;;;;;5065254;28;20045;-55
2022/03/14 12:19:41;;;;;;;22.80;10.23;;;11.20;99.90;;;;;;5065866;28;20041;-58
2022/03/14 12:22:10;;;;;;;22.90;9.50;;;11.20;99.90;;;;;;5062227;28;20399;-61
2022/03/14 12:24:36;;;;;;;23.85;10.88;;;11.30;99.90;;;;;;5062002;28;20162;-57
2022/03/14 12:27:14;;;;;;;24.15;10.15;;;11.20;99.90;;;;;;5055474;28;20066;-55
2022/03/14 12:29:41;;;;;;;22.05;10.27;;;11.30;99.90;;;;;;5060648;28;20040;-54
2022/03/14 12:32:23;;;;;;;21.73;10.18;;;11.30;99.90;;;;;;5061062;28;20044;-52
2022/03/14 12:35:02;;;;;;;20.55;9.25;;;11.30;99.90;;;;;;5056974;28;20100;-55
2022/03/14 12:37:44;;;;;;;25.42;10.27;;;11.40;99.90;;;;;;5063533;28;20574;-55
2022/03/14 12:40:19;;;;;;;20.42;9.63;;;11.40;99.90;;;;;;5063174;28;20056;-59
2022/03/14 12:42:47;;;;;;;22.60;8.82;;;11.50;99.90;;;;;;5061162;28;20044;-56